Accueil
METAR-TAF:

METAR-TAF

Aéroports :

Aérodrome de Londres Biggin Hill

Londres Biggin Hill, Angleterre

latitude: 51-19N, longitude: 000-02E, altitude: 183 m

Observation

Le bulletin a été fait il y a 6 heures et 45 minutes, à 20:20 UTC
Vent 6 kt de est/nord-est
Température 14°C
Humidité 94%
Pression 1013 hPa
Visibilité 10 km ou plus
Nuages fragmentés à une hauteur de 1900 ft

METAR: EGKB 012020Z 07006KT 9999 BKN019 14/13 Q1013

Heure: 04:05 (03:05 UTC)

Prévision

Le bulletin a été fait il y a 10 heures et 6 minutes, à 16:59 UTC
Prévision valable du 01 à 18 UTC au 01 à 21 UTC
Vent 5 kt de nord-est
Visibilité 10 km ou plus
Nuages épars à une hauteur de 2000 ft
Probabilité 30% :
Temporairement
du 01 à 18 UTC au 01 à 21 UTC
Nuages fragmentés à une hauteur de 1200 ft

TAF: EGKB 011659Z 0118/0121 05005KT 9999 SCT020 PROB30 TEMPO 0118/0121 BKN012

Observations et prévisions météorologiques de plus de 4000 aéroports (messages METAR et TAF).

Les stations disponibles sont représentées par des disques jaunes et rouges sur la carte.

Passer la souris dessus pour voir le nom de la station.

Cliquer dessus pour voir les observations et prévisions météorologiques.

Pour changer de carte: cliquez sur les boutons verts avec une croix noire pour zoomer, sur le bouton vert avec un tiret pour effectuer un zoom arrière, ou sur les flèches vertes pour les cartes adjacentes.


METAR-TAF: